Time;durP1;ratioP1;P1;durP2;ratioP2;P2;SDS_P1;SDS_P2;PMS_P1;PMS_P2;Temp;Humidity;BMP_temperature;BMP_pressure;BME280_temperature;BME280_humidity;BME280_pressure;Samples;Min_cycle;Max_cycle;Signal;HPM_P1;HPM_P2
2022/01/11 00:02:08;;;;;;;8.38;2.05;;;;;;;;;;5053911;28;20028;-73
2022/01/11 00:04:35;;;;;;;11.93;2.40;;;;;;;;;;5054903;28;20033;-74
2022/01/11 00:07:04;;;;;;;7.65;2.58;;;;;;;;;;5054999;28;20020;-74
2022/01/11 00:09:40;;;;;;;8.38;2.00;;;;;;;;;;5055052;28;20032;-73
2022/01/11 00:12:09;;;;;;;10.25;2.28;;;;;;;;;;5053759;28;20116;-73
2022/01/11 00:14:36;;;;;;;10.48;1.92;;;;;;;;;;5054947;28;20017;-72
2022/01/11 00:17:04;;;;;;;10.68;2.78;;;;;;;;;;5054879;28;20021;-73
2022/01/11 00:19:33;;;;;;;13.50;2.80;;;;;;;;;;5055080;28;20013;-74
2022/01/11 00:22:03;;;;;;;10.00;2.08;;;;;;;;;;5053540;28;20021;-75
2022/01/11 00:24:31;;;;;;;10.23;2.47;;;;;;;;;;5053554;28;20029;-74
2022/01/11 00:26:59;;;;;;;11.90;2.50;;;;;;;;;;5054744;28;20024;-73
2022/01/11 00:29:26;;;;;;;11.55;2.15;;;;;;;;;;5053534;28;20024;-73
2022/01/11 00:31:56;;;;;;;9.32;2.40;;;;;;;;;;5054660;28;20116;-74
2022/01/11 00:34:25;;;;;;;8.02;2.05;;;;;;;;;;5054687;28;20040;-74
2022/01/11 00:36:52;;;;;;;12.18;2.40;;;;;;;;;;5054638;28;20499;-74
2022/01/11 00:39:19;;;;;;;11.88;2.83;;;;;;;;;;5053373;28;20028;-73
2022/01/11 00:41:46;;;;;;;12.00;2.75;;;;;;;;;;5052643;28;20029;-73
2022/01/11 00:44:14;;;;;;;8.27;2.42;;;;;;;;;;5054645;28;20021;-73
2022/01/11 00:46:44;;;;;;;10.88;2.60;;;;;;;;;;5054445;28;20021;-75
2022/01/11 00:49:11;;;;;;;10.65;3.05;;;;;;;;;;5054758;28;20032;-74
2022/01/11 00:51:38;;;;;;;7.50;2.08;;;;;;;;;;5054368;28;20029;-74
2022/01/11 00:54:06;;;;;;;12.40;2.97;;;;;;;;;;5053065;28;20021;-74
2022/01/11 00:56:33;;;;;;;10.70;2.40;;;;;;;;;;5053022;28;20075;-74
2022/01/11 00:59:00;;;;;;;9.63;2.92;;;;;;;;;;5052848;28;20044;-75
2022/01/11 01:01:27;;;;;;;10.77;2.25;;;;;;;;;;5054225;28;20432;-75
2022/01/11 01:03:55;;;;;;;11.25;2.58;;;;;;;;;;5053828;28;20040;-75
2022/01/11 01:06:22;;;;;;;6.57;1.73;;;;;;;;;;5054040;28;20051;-73
2022/01/11 01:08:49;;;;;;;10.65;2.70;;;;;;;;;;5053953;28;20029;-73
2022/01/11 01:11:16;;;;;;;10.75;2.30;;;;;;;;;;5052632;28;20033;-73
2022/01/11 01:13:43;;;;;;;8.88;2.15;;;;;;;;;;5053875;28;20028;-72
2022/01/11 01:16:11;;;;;;;8.48;1.98;;;;;;;;;;5054002;28;20079;-73
2022/01/11 01:18:38;;;;;;;9.32;2.50;;;;;;;;;;5053919;28;20013;-72
2022/01/11 01:21:05;;;;;;;9.93;2.35;;;;;;;;;;5053870;28;20025;-73
2022/01/11 01:23:33;;;;;;;10.27;2.38;;;;;;;;;;5053656;28;20029;-72
2022/01/11 01:26:01;;;;;;;12.23;2.83;;;;;;;;;;5052369;28;20028;-73
2022/01/11 01:28:29;;;;;;;14.57;2.97;;;;;;;;;;5053491;28;20453;-72
2022/01/11 01:31:00;;;;;;;10.48;2.50;;;;;;;;;;5053563;28;20192;-72
2022/01/11 01:33:28;;;;;;;11.70;2.60;;;;;;;;;;5052284;28;20028;-72
2022/01/11 01:36:01;;;;;;;9.35;2.35;;;;;;;;;;5053524;28;20105;-73
2022/01/11 01:38:30;;;;;;;8.27;2.50;;;;;;;;;;5053411;28;20035;-73
2022/01/11 01:41:03;;;;;;;11.38;2.85;;;;;;;;;;5053376;28;20079;-73
2022/01/11 01:43:31;;;;;;;12.52;2.47;;;;;;;;;;5052021;28;20107;-74
2022/01/11 01:46:00;;;;;;;9.88;2.45;;;;;;;;;;5053485;28;20033;-74
2022/01/11 01:48:29;;;;;;;10.43;2.43;;;;;;;;;;5052129;28;20032;-75
2022/01/11 01:50:56;;;;;;;9.18;2.45;;;;;;;;;;5052080;28;20285;-73
2022/01/11 01:53:23;;;;;;;11.32;2.47;;;;;;;;;;5051532;28;20436;-73
2022/01/11 01:55:50;;;;;;;12.40;2.38;;;;;;;;;;5053003;28;20022;-74
2022/01/11 01:58:18;;;;;;;9.90;2.80;;;;;;;;;;5053115;28;20021;-73
2022/01/11 02:00:51;;;;;;;9.32;2.42;;;;;;;;;;5053097;28;20045;-73
2022/01/11 02:03:25;;;;;;;8.82;2.40;;;;;;;;;;5051603;28;20041;-73
2022/01/11 02:05:54;;;;;;;10.10;2.85;;;;;;;;;;5051861;28;20025;-74
2022/01/11 02:08:21;;;;;;;13.13;3.10;;;;;;;;;;5053062;28;20029;-73
2022/01/11 02:10:49;;;;;;;9.25;2.30;;;;;;;;;;5052851;28;20040;-74
2022/01/11 02:13:16;;;;;;;10.88;3.08;;;;;;;;;;5052985;28;20146;-73
2022/01/11 02:15:43;;;;;;;11.35;2.72;;;;;;;;;;5052852;28;20027;-73
2022/01/11 02:18:22;;;;;;;12.18;3.10;;;;;;;;;;5052957;28;20021;-72
2022/01/11 02:20:50;;;;;;;11.68;2.40;;;;;;;;;;5052863;28;20490;-73
2022/01/11 02:23:19;;;;;;;13.05;2.78;;;;;;;;;;5051557;28;20052;-73
2022/01/11 02:25:47;;;;;;;14.63;3.30;;;;;;;;;;5051515;28;20051;-73
2022/01/11 02:28:15;;;;;;;10.77;2.47;;;;;;;;;;5051502;28;20051;-74
2022/01/11 02:30:43;;;;;;;13.60;3.20;;;;;;;;;;5052837;28;20460;-74
2022/01/11 02:33:32;;;;;;;11.02;2.55;;;;;;;;;;5052870;28;20017;-74
2022/01/11 02:36:03;;;;;;;10.48;2.60;;;;;;;;;;5052760;28;20021;-75
2022/01/11 02:38:30;;;;;;;9.48;2.55;;;;;;;;;;5051634;28;20025;-74
2022/01/11 02:40:58;;;;;;;14.23;3.03;;;;;;;;;;5051370;28;20396;-73
2022/01/11 02:43:26;;;;;;;15.60;3.38;;;;;;;;;;5052662;28;20025;-74
2022/01/11 02:45:53;;;;;;;9.25;2.17;;;;;;;;;;5051249;28;20048;-73
2022/01/11 02:48:23;;;;;;;13.02;2.75;;;;;;;;;;5052656;28;20028;-74
2022/01/11 02:50:51;;;;;;;10.75;2.30;;;;;;;;;;5052482;28;20029;-74
2022/01/11 02:53:18;;;;;;;8.88;2.40;;;;;;;;;;5051323;28;20428;-74
2022/01/11 02:55:46;;;;;;;12.93;3.28;;;;;;;;;;5052457;28;20025;-73
2022/01/11 02:58:13;;;;;;;11.65;2.67;;;;;;;;;;5051149;28;20043;-74
2022/01/11 03:00:41;;;;;;;12.45;2.72;;;;;;;;;;5051133;28;20104;-74
2022/01/11 03:03:25;;;;;;;12.80;2.47;;;;;;;;;;5050988;28;20056;-74
2022/01/11 03:05:56;;;;;;;10.13;2.55;;;;;;;;;;5054224;28;20021;-74
2022/01/11 03:08:25;;;;;;;16.60;3.50;;;;;;;;;;5056322;28;20549;-74
2022/01/11 03:10:52;;;;;;;11.68;2.95;;;;;;;;;;5056165;28;20040;-74
2022/01/11 03:13:20;;;;;;;11.48;2.72;;;;;;;;;;5055017;28;20074;-75
2022/01/11 03:15:47;;;;;;;13.50;2.58;;;;;;;;;;5054925;28;20436;-74
2022/01/11 03:18:15;;;;;;;11.55;2.40;;;;;;;;;;5054905;28;20025;-73
2022/01/11 03:20:43;;;;;;;13.52;3.00;;;;;;;;;;5054790;28;20371;-74
2022/01/11 03:23:12;;;;;;;14.35;3.45;;;;;;;;;;5054720;28;20033;-73
2022/01/11 03:25:39;;;;;;;12.43;2.60;;;;;;;;;;5056035;28;20033;-74
2022/01/11 03:28:06;;;;;;;13.35;2.70;;;;;;;;;;5055927;28;20394;-72
2022/01/11 03:30:34;;;;;;;13.85;2.85;;;;;;;;;;5055927;28;20021;-74
2022/01/11 03:33:01;;;;;;;13.45;3.10;;;;;;;;;;5055821;28;20105;-74
2022/01/11 03:35:29;;;;;;;12.80;2.85;;;;;;;;;;5055863;28;20021;-74
2022/01/11 03:37:56;;;;;;;12.50;2.80;;;;;;;;;;5055735;28;20025;-73
2022/01/11 03:40:25;;;;;;;12.48;2.75;;;;;;;;;;5055781;28;20487;-73
2022/01/11 03:42:53;;;;;;;13.30;2.88;;;;;;;;;;5055648;28;20029;-74
2022/01/11 03:45:21;;;;;;;15.48;3.25;;;;;;;;;;5055774;28;20021;-74
2022/01/11 03:47:50;;;;;;;12.95;2.67;;;;;;;;;;5054217;28;20025;-74
2022/01/11 03:50:18;;;;;;;14.32;2.65;;;;;;;;;;5055585;28;20025;-75
2022/01/11 03:52:46;;;;;;;13.95;2.80;;;;;;;;;;5055512;28;20021;-75
2022/01/11 03:55:20;;;;;;;15.10;3.33;;;;;;;;;;5055547;28;20017;-75
2022/01/11 03:57:49;;;;;;;18.48;3.30;;;;;;;;;;5054195;28;20017;-75
2022/01/11 04:00:18;;;;;;;12.52;2.92;;;;;;;;;;5054180;28;20055;-74
2022/01/11 04:02:45;;;;;;;12.25;2.80;;;;;;;;;;5053837;28;20024;-75
2022/01/11 04:05:13;;;;;;;14.57;3.00;;;;;;;;;;5055331;28;20053;-74
2022/01/11 04:07:44;;;;;;;14.57;3.30;;;;;;;;;;5055225;28;20029;-74
2022/01/11 04:10:11;;;;;;;14.70;3.17;;;;;;;;;;5053922;28;20029;-74
2022/01/11 04:12:38;;;;;;;15.73;3.53;;;;;;;;;;5055165;28;20021;-74
2022/01/11 04:15:06;;;;;;;14.27;3.20;;;;;;;;;;5055157;28;20025;-73
2022/01/11 04:17:33;;;;;;;15.07;3.47;;;;;;;;;;5054221;28;20481;-74
2022/01/11 04:20:00;;;;;;;14.50;3.30;;;;;;;;;;5053679;28;20029;-74
2022/01/11 04:22:27;;;;;;;16.58;3.00;;;;;;;;;;5054974;28;20036;-74
2022/01/11 04:24:54;;;;;;;14.73;3.50;;;;;;;;;;5054959;28;20385;-74
2022/01/11 04:27:21;;;;;;;17.20;3.47;;;;;;;;;;5054877;28;20033;-74
2022/01/11 04:29:48;;;;;;;16.33;3.67;;;;;;;;;;5053495;28;20074;-74
2022/01/11 04:32:17;;;;;;;14.85;3.55;;;;;;;;;;5054871;28;20385;-74
2022/01/11 04:34:44;;;;;;;13.80;2.90;;;;;;;;;;5054805;28;20021;-75
2022/01/11 04:37:11;;;;;;;17.05;3.95;;;;;;;;;;5054851;28;20052;-75
2022/01/11 04:39:38;;;;;;;14.60;3.03;;;;;;;;;;5054739;28;20025;-75
2022/01/11 04:42:06;;;;;;;18.38;3.42;;;;;;;;;;5053507;28;20080;-76
2022/01/11 04:44:33;;;;;;;15.07;3.30;;;;;;;;;;5054572;28;20051;-75
2022/01/11 04:47:00;;;;;;;15.57;3.22;;;;;;;;;;5054636;28;20025;-75
2022/01/11 04:49:27;;;;;;;16.15;3.67;;;;;;;;;;5055141;28;20021;-76
2022/01/11 04:51:55;;;;;;;16.50;4.10;;;;;;;;;;5055700;28;20481;-77
2022/01/11 04:54:22;;;;;;;12.75;3.08;;;;;;;;;;5054397;28;20021;-73
2022/01/11 04:56:49;;;;;;;16.20;3.30;;;;;;;;;;5054600;28;20117;-75
2022/01/11 04:59:16;;;;;;;13.60;2.75;;;;;;;;;;5054320;28;20596;-74
2022/01/11 05:01:46;;;;;;;16.75;3.53;;;;;;;;;;5054426;28;20032;-75
2022/01/11 05:04:14;;;;;;;14.10;3.65;;;;;;;;;;5054035;28;20049;-75
2022/01/11 05:06:41;;;;;;;15.05;3.33;;;;;;;;;;5052947;28;20059;-75
2022/01/11 05:09:08;;;;;;;12.48;2.90;;;;;;;;;;5052739;28;20074;-75
2022/01/11 05:11:36;;;;;;;18.33;3.78;;;;;;;;;;5052957;28;20043;-76
2022/01/11 05:14:03;;;;;;;14.07;3.60;;;;;;;;;;5054276;28;20090;-75
2022/01/11 05:16:30;;;;;;;16.25;3.50;;;;;;;;;;5054071;28;20101;-77
2022/01/11 05:18:57;;;;;;;14.73;2.58;;;;;;;;;;5054251;28;20029;-76
2022/01/11 05:21:24;;;;;;;15.30;3.30;;;;;;;;;;5053045;28;20504;-75
2022/01/11 05:23:51;;;;;;;13.27;3.22;;;;;;;;;;5052510;28;20438;-75
2022/01/11 05:26:20;;;;;;;12.70;2.58;;;;;;;;;;5054112;28;20028;-74
2022/01/11 05:28:47;;;;;;;13.02;2.80;;;;;;;;;;5052518;28;20064;-74
2022/01/11 05:31:14;;;;;;;10.95;2.75;;;;;;;;;;5054165;28;20389;-75
2022/01/11 05:33:42;;;;;;;15.10;3.83;;;;;;;;;;5053835;28;20021;-75
2022/01/11 05:36:09;;;;;;;13.50;3.28;;;;;;;;;;5053875;28;20028;-76
2022/01/11 05:38:36;;;;;;;14.27;3.35;;;;;;;;;;5053769;28;20017;-76
2022/01/11 05:41:03;;;;;;;12.05;2.72;;;;;;;;;;5053634;28;20397;-76
2022/01/11 05:43:30;;;;;;;14.70;3.25;;;;;;;;;;5053767;28;20035;-75
2022/01/11 05:45:57;;;;;;;13.30;2.85;;;;;;;;;;5052134;28;20025;-75
2022/01/11 05:48:25;;;;;;;16.63;3.20;;;;;;;;;;5052154;28;20029;-75
2022/01/11 05:50:52;;;;;;;12.43;2.55;;;;;;;;;;5053148;28;20470;-75
2022/01/11 05:53:19;;;;;;;12.95;2.40;;;;;;;;;;5051995;28;20036;-75
2022/01/11 05:55:46;;;;;;;15.35;2.92;;;;;;;;;;5053350;28;20371;-76
2022/01/11 05:58:13;;;;;;;15.07;3.22;;;;;;;;;;5052143;28;20052;-75
2022/01/11 06:00:40;;;;;;;11.82;2.53;;;;;;;;;;5053070;28;20029;-75
2022/01/11 06:03:09;;;;;;;16.27;3.40;;;;;;;;;;5051640;28;20394;-74
2022/01/11 06:05:39;;;;;;;13.20;2.90;;;;;;;;;;5053048;28;20100;-75
2022/01/11 06:08:07;;;;;;;13.00;2.77;;;;;;;;;;5051697;28;20071;-72
2022/01/11 06:10:34;;;;;;;9.65;3.08;;;;;;;;;;5051522;28;20056;-73
2022/01/11 06:13:01;;;;;;;11.27;2.70;;;;;;;;;;5052953;28;20055;-72
2022/01/11 06:15:30;;;;;;;11.65;2.65;;;;;;;;;;5051472;28;20454;-72
2022/01/11 06:17:57;;;;;;;13.50;2.90;;;;;;;;;;5052854;28;20017;-74
2022/01/11 06:20:24;;;;;;;13.05;2.78;;;;;;;;;;5051450;28;20047;-74
2022/01/11 06:22:53;;;;;;;14.73;3.90;;;;;;;;;;5052739;28;20029;-73
2022/01/11 06:25:20;;;;;;;16.38;3.05;;;;;;;;;;5052689;28;20104;-74
2022/01/11 06:27:48;;;;;;;13.07;2.67;;;;;;;;;;5051458;28;20025;-73
2022/01/11 06:30:15;;;;;;;12.15;3.08;;;;;;;;;;5051274;28;20029;-73
2022/01/11 06:32:46;;;;;;;14.40;3.70;;;;;;;;;;5051377;28;20393;-72
2022/01/11 06:35:15;;;;;;;11.30;2.60;;;;;;;;;;5051586;28;20120;-72
2022/01/11 06:37:42;;;;;;;12.63;2.75;;;;;;;;;;5052521;28;20489;-72
2022/01/11 06:40:09;;;;;;;13.07;2.60;;;;;;;;;;5052421;28;20045;-73
2022/01/11 06:42:37;;;;;;;13.70;2.85;;;;;;;;;;5056722;28;20021;-73
2022/01/11 06:45:04;;;;;;;15.25;2.88;;;;;;;;;;5056784;28;20021;-72
2022/01/11 06:47:31;;;;;;;12.07;2.70;;;;;;;;;;5056666;28;20504;-76
2022/01/11 06:49:58;;;;;;;14.68;3.05;;;;;;;;;;5055171;28;20036;-73
2022/01/11 06:52:27;;;;;;;14.65;3.10;;;;;;;;;;5055115;28;20055;-72
2022/01/11 06:54:54;;;;;;;14.05;3.42;;;;;;;;;;5056651;28;20051;-75
2022/01/11 06:57:21;;;;;;;15.07;3.13;;;;;;;;;;5056535;28;20044;-73
2022/01/11 06:59:48;;;;;;;20.17;3.47;;;;;;;;;;5056439;28;20024;-74
2022/01/11 07:02:15;;;;;;;14.57;3.10;;;;;;;;;;5055178;28;20026;-72
2022/01/11 07:04:43;;;;;;;13.70;2.72;;;;;;;;;;5056194;28;20541;-73
2022/01/11 07:07:10;;;;;;;17.13;3.35;;;;;;;;;;5056310;28;20074;-74
2022/01/11 07:09:37;;;;;;;14.35;3.58;;;;;;;;;;5056318;28;20068;-73
2022/01/11 07:12:05;;;;;;;14.52;2.45;;;;;;;;;;5056188;28;20025;-75
2022/01/11 07:14:32;;;;;;;14.48;3.25;;;;;;;;;;5054867;28;20543;-73
2022/01/11 07:16:59;;;;;;;19.35;4.20;;;;;;;;;;5055866;28;20029;-74
2022/01/11 07:19:29;;;;;;;14.35;3.00;;;;;;;;;;5056068;28;20068;-76
2022/01/11 07:22:00;;;;;;;18.45;3.17;;;;;;;;;;5056127;28;20397;-73
2022/01/11 07:24:28;;;;;;;15.93;3.70;;;;;;;;;;5056170;28;20025;-75
2022/01/11 07:26:55;;;;;;;14.15;2.85;;;;;;;;;;5054636;28;20021;-75
2022/01/11 07:29:23;;;;;;;13.60;2.50;;;;;;;;;;5056149;28;20029;-74
2022/01/11 07:31:50;;;;;;;16.67;3.00;;;;;;;;;;5038141;28;20444;-75
2022/01/11 07:34:17;;;;;;;14.30;3.45;;;;;;;;;;5055959;28;20021;-74
2022/01/11 07:36:45;;;;;;;13.98;3.33;;;;;;;;;;5055933;28;20412;-72
2022/01/11 07:39:15;;;;;;;15.85;3.13;;;;;;;;;;5055777;28;20053;-74
2022/01/11 07:41:42;;;;;;;;;;;;;;;;;;5056319;28;20029;-74
2022/01/11 07:44:09;;;;;;;17.85;3.42;;;;;;;;;;5054329;28;20002;-74
2022/01/11 07:46:36;;;;;;;18.55;4.32;;;;;;;;;;5054453;28;20441;-74
2022/01/11 07:49:05;;;;;;;19.20;3.30;;;;;;;;;;5055533;28;20028;-75
2022/01/11 07:51:32;;;;;;;14.43;3.13;;;;;;;;;;5054597;28;20029;-75
2022/01/11 07:53:59;;;;;;;11.98;3.05;;;;;;;;;;5055237;28;20103;-74
2022/01/11 07:56:27;;;;;;;14.70;3.03;;;;;;;;;;5055435;28;20021;-74
2022/01/11 07:58:54;;;;;;;16.27;3.55;;;;;;;;;;5054132;28;20390;-75
2022/01/11 08:01:21;;;;;;;15.65;3.45;;;;;;;;;;5054119;28;20036;-74
2022/01/11 08:03:48;;;;;;;14.88;2.85;;;;;;;;;;5055064;28;20415;-73
2022/01/11 08:06:16;;;;;;;13.00;3.13;;;;;;;;;;5055385;28;20083;-73
2022/01/11 08:08:43;;;;;;;13.88;2.88;;;;;;;;;;5055281;28;20025;-73
2022/01/11 08:11:12;;;;;;;16.08;3.60;;;;;;;;;;5055209;28;20075;-74
2022/01/11 08:13:40;;;;;;;15.93;3.20;;;;;;;;;;5055192;28;20028;-75
2022/01/11 08:16:07;;;;;;;17.83;3.53;;;;;;;;;;5054024;28;20025;-76
2022/01/11 08:18:34;;;;;;;18.35;3.53;;;;;;;;;;5055078;28;20223;-75
2022/01/11 08:21:01;;;;;;;12.05;2.65;;;;;;;;;;5055040;28;20051;-74
2022/01/11 08:23:29;;;;;;;16.48;3.25;;;;;;;;;;5053690;28;20148;-76
2022/01/11 08:25:56;;;;;;;15.55;3.28;;;;;;;;;;5053638;28;20025;-74
2022/01/11 08:28:25;;;;;;;20.55;3.25;;;;;;;;;;5054834;28;20040;-74
2022/01/11 08:30:52;;;;;;;15.38;2.70;;;;;;;;;;5054813;28;20025;-75
2022/01/11 08:33:21;;;;;;;16.83;3.17;;;;;;;;;;5054892;28;20024;-74
2022/01/11 08:35:50;;;;;;;18.40;3.88;;;;;;;;;;5055422;28;20025;-73
2022/01/11 08:38:17;;;;;;;13.75;2.85;;;;;;;;;;5053602;28;20021;-74
2022/01/11 08:40:44;;;;;;;17.50;3.15;;;;;;;;;;5054935;28;20025;-76
2022/01/11 08:43:13;;;;;;;16.98;3.10;;;;;;;;;;5053335;28;20094;-74
2022/01/11 08:45:40;;;;;;;17.42;3.65;;;;;;;;;;5053284;28;20055;-73
2022/01/11 08:48:08;;;;;;;16.88;3.20;;;;;;;;;;5053327;28;20025;-74
2022/01/11 08:50:38;;;;;;;16.88;3.38;;;;;;;;;;5053227;28;20025;-74
2022/01/11 08:53:06;;;;;;;19.98;3.15;;;;;;;;;;5054946;28;20124;-74
2022/01/11 08:55:34;;;;;;;18.02;3.13;;;;;;;;;;5054418;28;20437;-73
2022/01/11 08:58:01;;;;;;;17.77;3.03;;;;;;;;;;5054437;28;20021;-75
2022/01/11 09:00:28;;;;;;;17.80;3.25;;;;;;;;;;5054421;28;20410;-74
2022/01/11 09:02:55;;;;;;;19.27;3.25;;;;;;;;;;5053816;28;20044;-74
2022/01/11 09:05:23;;;;;;;15.38;2.83;;;;;;;;;;5054182;28;20104;-75
2022/01/11 09:07:50;;;;;;;17.85;3.33;;;;;;;;;;5053110;28;20029;-75
2022/01/11 09:10:18;;;;;;;20.25;3.75;;;;;;;;;;5054016;28;20052;-73
2022/01/11 09:12:46;;;;;;;17.27;3.60;;;;;;;;;;5052844;28;20025;-75
2022/01/11 09:15:13;;;;;;;17.10;3.08;;;;;;;;;;5054627;28;20237;-73
2022/01/11 09:17:42;;;;;;;18.95;3.97;;;;;;;;;;5052859;28;20028;-73
2022/01/11 09:20:10;;;;;;;17.00;3.00;;;;;;;;;;5054251;28;20035;-73
2022/01/11 09:22:37;;;;;;;21.27;3.70;;;;;;;;;;5053962;28;20409;-74
2022/01/11 09:25:05;;;;;;;19.40;3.42;;;;;;;;;;5053837;28;20496;-74
2022/01/11 09:27:32;;;;;;;19.73;3.10;;;;;;;;;;5053893;28;20021;-72
2022/01/11 09:29:59;;;;;;;18.42;3.05;;;;;;;;;;5053614;28;20031;-73
2022/01/11 09:32:26;;;;;;;16.30;3.35;;;;;;;;;;5053735;28;20025;-71
2022/01/11 09:34:54;;;;;;;20.33;4.00;;;;;;;;;;5052369;28;20028;-72
2022/01/11 09:37:23;;;;;;;20.33;3.95;;;;;;;;;;5052421;28;20385;-74
2022/01/11 09:39:50;;;;;;;21.13;3.70;;;;;;;;;;5052420;28;20035;-74
2022/01/11 09:42:17;;;;;;;16.60;3.85;;;;;;;;;;5053752;28;20029;-74
2022/01/11 09:44:46;;;;;;;19.40;3.28;;;;;;;;;;5053786;28;20041;-72
2022/01/11 09:47:14;;;;;;;21.98;4.72;;;;;;;;;;5053380;28;20021;-73
2022/01/11 09:49:42;;;;;;;24.83;4.20;;;;;;;;;;5053577;28;20021;-73
2022/01/11 09:52:10;;;;;;;17.45;3.50;;;;;;;;;;5053619;28;20036;-74
2022/01/11 09:54:38;;;;;;;22.40;3.85;;;;;;;;;;5053440;28;20025;-73
2022/01/11 09:57:06;;;;;;;24.40;3.45;;;;;;;;;;5052040;28;20021;-73
2022/01/11 09:59:33;;;;;;;18.27;3.85;;;;;;;;;;5052089;28;20036;-72
2022/01/11 10:02:02;;;;;;;21.15;3.42;;;;;;;;;;5053324;28;20095;-73
2022/01/11 10:04:31;;;;;;;15.98;3.40;;;;;;;;;;5053113;28;20055;-75
2022/01/11 10:07:16;;;;;;;20.33;4.22;;;;;;;;;;5052193;28;20087;-74
2022/01/11 10:09:47;;;;;;;19.73;4.18;;;;;;;;;;5053257;28;20028;-73
2022/01/11 10:12:14;;;;;;;23.67;4.70;;;;;;;;;;5053534;28;20053;-73
2022/01/11 10:14:49;;;;;;;24.55;3.38;;;;;;;;;;5052494;28;20071;-74
2022/01/11 10:17:19;;;;;;;16.23;3.88;;;;;;;;;;5053086;28;20053;-74
2022/01/11 10:19:48;;;;;;;21.05;3.50;;;;;;;;;;5051949;28;20025;-73
2022/01/11 10:22:17;;;;;;;19.15;4.20;;;;;;;;;;5052984;28;20074;-72
2022/01/11 10:24:49;;;;;;;19.08;3.25;;;;;;;;;;5052949;28;20071;-73
2022/01/11 10:27:18;;;;;;;19.35;3.58;;;;;;;;;;5053044;28;20017;-74
2022/01/11 10:29:47;;;;;;;15.43;3.35;;;;;;;;;;5052841;28;20438;-73
2022/01/11 10:32:16;;;;;;;19.67;3.92;;;;;;;;;;5052977;28;20446;-73
2022/01/11 10:34:47;;;;;;;21.00;3.33;;;;;;;;;;5052862;28;20069;-74
2022/01/11 10:37:18;;;;;;;20.60;4.60;;;;;;;;;;5052945;28;20032;-73
2022/01/11 10:39:45;;;;;;;17.70;3.42;;;;;;;;;;5052898;28;20028;-75
2022/01/11 10:42:33;;;;;;;14.63;3.78;;;;;;;;;;5052804;28;20017;-73
2022/01/11 10:45:10;;;;;;;22.80;3.65;;;;;;;;;;5051636;28;20028;-73
2022/01/11 10:47:39;;;;;;;21.90;3.90;;;;;;;;;;5051485;28;20482;-72
2022/01/11 10:50:08;;;;;;;21.48;3.85;;;;;;;;;;5051414;28;20110;-74
2022/01/11 10:52:36;;;;;;;18.85;3.42;;;;;;;;;;5051423;28;20021;-74
2022/01/11 10:55:07;;;;;;;21.58;3.55;;;;;;;;;;5052653;28;20041;-73
2022/01/11 10:57:39;;;;;;;14.65;3.17;;;;;;;;;;5052534;28;20024;-73
2022/01/11 11:00:15;;;;;;;17.77;3.53;;;;;;;;;;5052716;28;20028;-74
2022/01/11 11:02:43;;;;;;;21.15;3.47;;;;;;;;;;5052430;28;20056;-74
2022/01/11 11:05:23;;;;;;;18.65;4.07;;;;;;;;;;5052653;28;20100;-74
2022/01/11 11:07:58;;;;;;;15.95;2.95;;;;;;;;;;5051349;28;20075;-73
2022/01/11 11:10:32;;;;;;;14.80;3.42;;;;;;;;;;5052574;28;20033;-73
2022/01/11 11:13:00;;;;;;;17.98;3.35;;;;;;;;;;5051780;28;20025;-73
2022/01/11 11:15:31;;;;;;;17.67;3.08;;;;;;;;;;5052660;28;20021;-73
2022/01/11 11:17:58;;;;;;;17.13;3.33;;;;;;;;;;5051222;28;20079;-73
2022/01/11 11:20:26;;;;;;;16.00;3.58;;;;;;;;;;5051273;28;20021;-73
2022/01/11 11:22:53;;;;;;;16.98;2.85;;;;;;;;;;5052541;28;20065;-72
2022/01/11 11:25:20;;;;;;;18.48;3.47;;;;;;;;;;5052397;28;20048;-74
2022/01/11 11:27:47;;;;;;;14.25;2.95;;;;;;;;;;5054269;28;20048;-73
2022/01/11 11:30:15;;;;;;;15.52;2.70;;;;;;;;;;5056286;28;20021;-72
2022/01/11 11:32:42;;;;;;;19.27;3.67;;;;;;;;;;5056135;28;20052;-73
2022/01/11 11:35:09;;;;;;;18.73;3.55;;;;;;;;;;5056285;28;20482;-72
2022/01/11 11:37:38;;;;;;;13.93;2.45;;;;;;;;;;5056027;28;20027;-74
2022/01/11 11:40:31;;;;;;;17.92;3.22;;;;;;;;;;5055935;28;20415;-74
2022/01/11 11:43:00;;;;;;;21.80;4.30;;;;;;;;;;5055514;28;20045;-73
2022/01/11 11:45:37;;;;;;;17.92;3.60;;;;;;;;;;5054521;28;20401;-73
2022/01/11 11:48:06;;;;;;;15.88;3.03;;;;;;;;;;5055894;28;20359;-73
2022/01/11 11:50:33;;;;;;;17.23;3.05;;;;;;;;;;5055944;28;20078;-73
2022/01/11 11:53:01;;;;;;;16.65;3.45;;;;;;;;;;5055658;28;20021;-73
2022/01/11 11:55:29;;;;;;;18.70;3.60;;;;;;;;;;5054443;28;20029;-73
2022/01/11 11:57:58;;;;;;;17.05;3.33;;;;;;;;;;5054401;28;20454;-74
2022/01/11 12:00:27;;;;;;;18.90;3.10;;;;;;;;;;5054379;28;20029;-74
2022/01/11 12:02:55;;;;;;;24.17;3.80;;;;;;;;;;5054205;28;20033;-74
2022/01/11 12:05:34;;;;;;;24.08;5.30;;;;;;;;;;5054127;28;20029;-74
2022/01/11 12:08:19;;;;;;;18.52;3.53;;;;;;;;;;5054205;28;20040;-74
2022/01/11 12:10:49;;;;;;;16.52;3.33;;;;;;;;;;5055481;28;20029;-72
2022/01/11 12:13:38;;;;;;;15.60;3.05;;;;;;;;;;5055504;28;20029;-73
2022/01/11 12:16:25;;;;;;;16.63;3.33;;;;;;;;;;5054824;28;20512;-73
2022/01/11 12:18:53;;;;;;;16.73;2.90;;;;;;;;;;5055021;28;20100;-73
2022/01/11 12:21:21;;;;;;;18.70;2.88;;;;;;;;;;5053773;28;20498;-73
2022/01/11 12:23:48;;;;;;;18.73;3.30;;;;;;;;;;5053741;28;20541;-74
2022/01/11 12:26:16;;;;;;;19.27;3.15;;;;;;;;;;5054818;28;20028;-74
2022/01/11 12:29:09;;;;;;;22.67;4.53;;;;;;;;;;5054872;28;20104;-73
2022/01/11 12:31:37;;;;;;;17.20;2.97;;;;;;;;;;5053523;28;20071;-73
2022/01/11 12:34:09;;;;;;;14.85;3.15;;;;;;;;;;5054743;28;20389;-73
2022/01/11 12:36:54;;;;;;;15.65;3.55;;;;;;;;;;5054740;28;20013;-73
2022/01/11 12:39:22;;;;;;;21.17;3.83;;;;;;;;;;5053875;28;20021;-72
2022/01/11 12:41:49;;;;;;;16.25;3.25;;;;;;;;;;5054616;28;20025;-73
2022/01/11 12:44:21;;;;;;;18.20;3.25;;;;;;;;;;5053305;28;20051;-73
2022/01/11 12:46:53;;;;;;;17.42;2.90;;;;;;;;;;5054613;28;20028;-72
2022/01/11 12:49:21;;;;;;;12.18;2.55;;;;;;;;;;5054460;28;20445;-72
2022/01/11 12:51:55;;;;;;;23.02;3.42;;;;;;;;;;5054397;28;20061;-73
2022/01/11 12:54:25;;;;;;;16.80;3.10;;;;;;;;;;5054497;28;20028;-73
2022/01/11 12:56:54;;;;;;;15.68;3.60;;;;;;;;;;5053041;28;20508;-73
2022/01/11 12:59:22;;;;;;;20.05;2.88;;;;;;;;;;5053001;28;20031;-72
2022/01/11 13:01:57;;;;;;;18.33;3.03;;;;;;;;;;5052914;28;20394;-73
2022/01/11 13:04:40;;;;;;;19.63;2.83;;;;;;;;;;5053952;28;20045;-73
2022/01/11 13:07:16;;;;;;;14.52;2.90;;;;;;;;;;5052794;28;20021;-73
2022/01/11 13:09:45;;;;;;;13.90;2.83;;;;;;;;;;5054104;28;20393;-73
2022/01/11 13:12:25;;;;;;;19.25;2.92;;;;;;;;;;5052774;28;20534;-73
2022/01/11 13:15:08;;;;;;;18.40;2.87;;;;;;;;;;5052780;28;20021;-73
2022/01/11 13:17:55;;;;;;;17.30;2.60;;;;;;;;;;5053970;28;20250;-72
2022/01/11 13:20:22;;;;;;;14.73;2.45;;;;;;;;;;5053280;28;20037;-73
2022/01/11 13:23:16;;;;;;;15.35;2.60;;;;;;;;;;5053858;28;20040;-73
2022/01/11 13:25:43;;;;;;;16.73;3.42;;;;;;;;;;5052556;28;20375;-72
2022/01/11 13:28:10;;;;;;;14.85;2.80;;;;;;;;;;5053711;28;20055;-72
2022/01/11 13:30:45;;;;;;;16.88;2.75;;;;;;;;;;5053605;28;20436;-72
2022/01/11 13:33:22;;;;;;;12.90;2.88;;;;;;;;;;5052369;28;20138;-72
2022/01/11 13:35:50;;;;;;;17.85;2.80;;;;;;;;;;5053855;28;20478;-72
2022/01/11 13:38:17;;;;;;;13.93;2.42;;;;;;;;;;5053498;28;20041;-72
2022/01/11 13:40:45;;;;;;;16.98;2.85;;;;;;;;;;5052307;28;20060;-72
2022/01/11 13:43:13;;;;;;;18.58;2.80;;;;;;;;;;5052280;28;20151;-73
2022/01/11 13:45:45;;;;;;;17.75;3.05;;;;;;;;;;5053512;28;20025;-74
2022/01/11 13:48:23;;;;;;;14.13;3.00;;;;;;;;;;5052127;28;20489;-73
2022/01/11 13:50:55;;;;;;;11.98;2.97;;;;;;;;;;5053595;28;20104;-74
2022/01/11 13:53:32;;;;;;;13.20;2.47;;;;;;;;;;5053319;28;20024;-73
2022/01/11 13:56:01;;;;;;;17.27;2.72;;;;;;;;;;5053254;28;20481;-74
2022/01/11 13:58:29;;;;;;;14.23;2.50;;;;;;;;;;5053162;28;20025;-72
2022/01/11 14:00:57;;;;;;;15.00;3.35;;;;;;;;;;5053223;28;20440;-72
2022/01/11 14:03:25;;;;;;;13.68;2.50;;;;;;;;;;5051719;28;20052;-73
2022/01/11 14:05:52;;;;;;;14.40;2.63;;;;;;;;;;5053155;28;20033;-72
2022/01/11 14:08:32;;;;;;;15.13;2.80;;;;;;;;;;5051741;28;20028;-72
2022/01/11 14:11:07;;;;;;;13.70;2.10;;;;;;;;;;5052982;28;20064;-73
2022/01/11 14:13:36;;;;;;;18.02;2.88;;;;;;;;;;5053104;28;20500;-73
2022/01/11 14:16:10;;;;;;;24.13;3.33;;;;;;;;;;5051653;28;20371;-73
2022/01/11 14:18:37;;;;;;;16.67;3.15;;;;;;;;;;5052973;28;20490;-73
2022/01/11 14:21:06;;;;;;;16.67;4.22;;;;;;;;;;5052941;28;20367;-73
2022/01/11 14:23:35;;;;;;;17.20;2.75;;;;;;;;;;5052992;28;20104;-73
2022/01/11 14:26:02;;;;;;;16.40;3.78;;;;;;;;;;5051519;28;20393;-71
2022/01/11 14:28:31;;;;;;;14.45;2.25;;;;;;;;;;5051591;28;20036;-73
2022/01/11 14:31:00;;;;;;;15.77;2.70;;;;;;;;;;5052698;28;20025;-72
2022/01/11 14:33:30;;;;;;;14.90;2.95;;;;;;;;;;5052824;28;20025;-72
2022/01/11 14:36:19;;;;;;;13.52;2.63;;;;;;;;;;5052801;28;20047;-72
2022/01/11 14:38:51;;;;;;;15.90;2.78;;;;;;;;;;5052730;28;20024;-73
2022/01/11 14:41:36;;;;;;;12.63;2.40;;;;;;;;;;5051436;28;20036;-72
2022/01/11 14:44:14;;;;;;;11.98;2.22;;;;;;;;;;5052767;28;20106;-74